createdAt,value
2019-02-05T00:00:40.546Z,21.53
2019-02-05T00:04:44.055Z,17.43
2019-02-05T00:08:47.573Z,18.30
2019-02-05T00:12:50.988Z,20.57
2019-02-05T00:16:54.433Z,20.53
2019-02-05T00:20:57.935Z,23.53
2019-02-05T00:25:01.409Z,21.10
2019-02-05T00:29:04.968Z,23.60
2019-02-05T00:33:08.980Z,23.20
2019-02-05T00:37:12.432Z,24.87
2019-02-05T00:41:16.250Z,25.80
2019-02-05T00:45:20.431Z,25.00
2019-02-05T00:49:23.856Z,23.80
2019-02-05T00:53:27.335Z,25.90
2019-02-05T00:57:30.836Z,27.87
2019-02-05T01:01:34.427Z,29.37
2019-02-05T01:05:37.841Z,28.40
2019-02-05T01:09:41.293Z,26.83
2019-02-05T01:13:44.760Z,24.23
2019-02-05T01:17:48.741Z,26.83
2019-02-05T01:21:52.167Z,25.97
2019-02-05T01:25:56.273Z,27.27
2019-02-05T01:29:59.727Z,25.33
2019-02-05T01:34:03.257Z,27.67
2019-02-05T01:38:06.710Z,28.53
2019-02-05T01:42:10.195Z,30.23
2019-02-05T01:46:13.620Z,29.27
2019-02-05T01:50:22.476Z,29.63
2019-02-05T01:54:25.929Z,32.43
2019-02-05T01:58:29.360Z,29.30
2019-02-05T02:02:32.808Z,28.93
2019-02-05T02:06:36.296Z,31.10
2019-02-05T02:10:40.317Z,30.73
2019-02-05T02:14:43.744Z,32.50
2019-02-05T02:18:47.512Z,32.63
2019-02-05T02:22:50.978Z,34.47
2019-02-05T02:26:54.477Z,33.93
2019-02-05T02:30:57.924Z,32.60
2019-02-05T02:35:01.413Z,33.37
2019-02-05T02:39:06.879Z,33.27
2019-02-05T02:43:10.302Z,32.40
2019-02-05T02:47:13.741Z,33.17
2019-02-05T02:51:17.176Z,36.03
2019-02-05T02:55:20.680Z,32.60
2019-02-05T02:59:24.194Z,37.63
2019-02-05T03:03:27.612Z,31.93
2019-02-05T03:07:31.052Z,36.70
2019-02-05T03:11:34.496Z,32.73
2019-02-05T03:15:38.005Z,34.73
2019-02-05T03:19:41.524Z,36.20
2019-02-05T03:23:44.961Z,35.30
2019-02-05T03:27:48.876Z,32.33
2019-02-05T03:31:52.388Z,31.33
2019-02-05T03:35:55.905Z,33.63
2019-02-05T03:39:59.396Z,34.67
2019-02-05T03:44:02.837Z,37.07
2019-02-05T03:48:07.017Z,35.87
2019-02-05T03:52:12.656Z,40.70
2019-02-05T03:56:33.728Z,35.73
2019-02-05T04:00:43.103Z,36.47
2019-02-05T04:05:01.532Z,35.03
2019-02-05T04:09:19.740Z,34.77
2019-02-05T04:13:34.958Z,36.10
2019-02-05T04:17:53.425Z,34.03
2019-02-05T04:22:02.663Z,36.17
2019-02-05T04:26:27.116Z,37.73
2019-02-05T04:30:33.619Z,35.33
2019-02-05T04:35:07.395Z,37.50
2019-02-05T04:39:19.802Z,36.23
2019-02-05T04:43:41.208Z,38.17
2019-02-05T04:48:02.817Z,36.87
2019-02-05T04:52:42.860Z,37.73
2019-02-05T04:56:52.640Z,37.63
2019-02-05T05:01:13.902Z,38.67
2019-02-05T05:05:37.745Z,39.27
2019-02-05T05:09:58.472Z,36.83
2019-02-05T05:14:01.953Z,38.03
2019-02-05T05:18:05.516Z,36.50
2019-02-05T05:22:09.082Z,40.50
2019-02-05T05:26:12.897Z,40.33
2019-02-05T05:30:17.757Z,43.77
2019-02-05T05:34:21.288Z,42.60
2019-02-05T05:38:24.897Z,46.17
2019-02-05T05:42:28.463Z,40.40
2019-02-05T05:46:31.909Z,37.43
2019-02-05T05:50:35.416Z,43.63
2019-02-05T05:54:38.984Z,42.20
2019-02-05T05:58:42.434Z,48.10
2019-02-05T06:02:45.932Z,44.00
2019-02-05T06:06:49.440Z,40.23
2019-02-05T06:10:52.884Z,45.00
2019-02-05T06:14:56.408Z,39.90
2019-02-05T06:18:59.915Z,43.20
2019-02-05T06:23:03.344Z,44.27
2019-02-05T06:27:06.852Z,43.60
2019-02-05T06:31:10.297Z,49.00
2019-02-05T06:35:13.865Z,46.87
2019-02-05T06:39:17.295Z,50.63
2019-02-05T06:43:20.738Z,45.27
2019-02-05T06:47:24.176Z,47.57
2019-02-05T06:51:27.686Z,45.93
2019-02-05T06:55:31.194Z,47.17
2019-02-05T06:59:34.699Z,48.57
2019-02-05T07:03:38.124Z,50.27
2019-02-05T07:07:41.624Z,51.47
2019-02-05T07:11:45.604Z,47.00
2019-02-05T07:15:49.044Z,48.47
2019-02-05T07:19:53.259Z,43.87
2019-02-05T07:23:56.703Z,52.30
2019-02-05T07:28:00.323Z,50.13
2019-02-05T07:32:04.513Z,54.77
2019-02-05T07:36:08.461Z,55.20
2019-02-05T07:40:15.403Z,47.77
2019-02-05T07:44:18.950Z,52.13
2019-02-05T07:48:22.469Z,52.30
2019-02-05T07:52:25.977Z,50.53
2019-02-05T07:56:29.496Z,48.23
2019-02-05T08:00:32.937Z,48.37
2019-02-05T08:04:36.481Z,46.10
2019-02-05T08:08:40.091Z,49.90
2019-02-05T08:12:43.977Z,45.00
2019-02-05T08:16:48.097Z,45.80
2019-02-05T08:20:51.896Z,47.20
2019-02-05T08:24:56.384Z,44.53
2019-02-05T08:28:59.892Z,54.57
2019-02-05T08:33:04.148Z,56.40
2019-02-05T08:37:07.648Z,49.03
2019-02-05T08:41:11.528Z,47.03
2019-02-05T08:45:38.519Z,66.20
2019-02-05T08:49:42.016Z,83.10
2019-02-05T08:53:45.456Z,95.10
2019-02-05T08:57:50.429Z,69.13
2019-02-05T09:01:53.925Z,58.10
2019-02-05T09:05:57.397Z,53.40
2019-02-05T09:10:00.833Z,45.53
2019-02-05T09:14:10.711Z,46.77
2019-02-05T09:18:11.205Z,51.73
2019-02-05T09:22:14.712Z,43.93
2019-02-05T09:26:18.540Z,46.50
2019-02-05T09:30:27.676Z,45.20
2019-02-05T09:34:31.163Z,56.77
2019-02-05T09:38:34.664Z,76.93
2019-02-05T09:42:38.185Z,50.83
2019-02-05T09:46:41.692Z,52.53
2019-02-05T09:50:45.336Z,53.07
2019-02-05T09:54:48.781Z,69.67
2019-02-05T09:58:52.299Z,89.77
2019-02-05T10:02:56.156Z,67.03
2019-02-05T10:06:59.698Z,47.10
2019-02-05T10:11:03.277Z,74.20
2019-02-05T10:15:09.865Z,287.40
2019-02-05T10:19:13.380Z,284.27
2019-02-05T10:23:16.811Z,81.53
2019-02-05T10:27:20.349Z,44.40
2019-02-05T10:31:23.856Z,44.17
2019-02-05T10:35:27.349Z,48.00
2019-02-05T10:39:30.856Z,46.53
2019-02-05T10:43:34.356Z,57.53
2019-02-05T10:47:39.334Z,64.87
2019-02-05T10:51:42.889Z,49.57
2019-02-05T10:55:46.432Z,46.70
2019-02-05T10:59:49.937Z,40.23
2019-02-05T11:03:53.372Z,37.57
2019-02-05T11:07:56.809Z,44.80
2019-02-05T11:12:00.313Z,39.27
2019-02-05T11:16:04.297Z,35.77
2019-02-05T11:20:14.038Z,37.20
2019-02-05T11:24:17.769Z,45.23
2019-02-05T11:28:21.279Z,47.63
2019-02-05T11:32:24.769Z,36.30
2019-02-05T11:36:28.276Z,31.33
2019-02-05T11:40:37.288Z,30.67
2019-02-05T11:44:40.800Z,25.47
2019-02-05T11:48:45.069Z,27.70
2019-02-05T11:52:48.700Z,25.03
2019-02-05T11:56:52.217Z,22.10
2019-02-05T12:00:57.364Z,26.47
2019-02-05T12:05:00.887Z,26.57
2019-02-05T12:09:07.388Z,24.83
2019-02-05T12:13:10.805Z,24.50
2019-02-05T12:17:14.248Z,23.33
2019-02-05T12:21:17.808Z,21.37
2019-02-05T12:25:22.907Z,21.27
2019-02-05T12:29:26.433Z,21.03
2019-02-05T12:33:29.869Z,17.97
2019-02-05T12:37:33.641Z,17.90
2019-02-05T12:41:37.095Z,20.70
2019-02-05T12:45:40.729Z,21.57
2019-02-05T12:49:44.188Z,17.47
2019-02-05T12:53:47.684Z,22.27
2019-02-05T12:57:51.484Z,19.10
2019-02-05T13:01:54.997Z,17.27
2019-02-05T13:05:58.443Z,16.57
2019-02-05T13:10:01.887Z,14.80
2019-02-05T13:14:06.028Z,15.80
2019-02-05T13:18:09.936Z,12.40
2019-02-05T13:22:13.753Z,14.50
2019-02-05T13:26:17.189Z,15.83
2019-02-05T13:30:23.054Z,18.77
2019-02-05T13:34:26.536Z,15.20
2019-02-05T13:38:29.981Z,11.03
2019-02-05T13:42:33.425Z,23.20
2019-02-05T13:46:36.865Z,17.77
2019-02-05T13:50:40.359Z,13.07
2019-02-05T13:54:43.917Z,13.67
2019-02-05T13:58:47.394Z,14.43
2019-02-05T14:02:50.917Z,17.17
2019-02-05T14:06:54.365Z,18.00
2019-02-05T14:10:58.082Z,20.03
2019-02-05T14:15:01.896Z,20.27
2019-02-05T14:19:05.618Z,18.63
2019-02-05T14:23:09.868Z,16.27
2019-02-05T14:27:13.320Z,17.33
2019-02-05T14:31:16.916Z,17.63
2019-02-05T14:35:20.355Z,20.10
2019-02-05T14:39:23.791Z,19.47
2019-02-05T14:43:27.240Z,23.63
2019-02-05T14:47:30.656Z,26.03
2019-02-05T14:51:34.093Z,23.40
2019-02-05T14:55:37.529Z,25.47
2019-02-05T14:59:41.070Z,21.23
2019-02-05T15:03:44.488Z,22.77
2019-02-05T15:07:47.908Z,19.97
2019-02-05T15:11:51.423Z,25.83
2019-02-05T15:15:54.933Z,24.33
2019-02-05T15:19:58.395Z,21.10
2019-02-05T15:24:02.472Z,19.43
2019-02-05T15:28:06.805Z,19.20
2019-02-05T15:32:11.889Z,19.33
2019-02-05T15:36:17.305Z,17.77
2019-02-05T15:40:20.808Z,21.07
2019-02-05T15:44:24.249Z,31.77
2019-02-05T15:48:27.667Z,22.60
2019-02-05T15:52:31.126Z,28.10
2019-02-05T15:56:34.640Z,20.43
2019-02-05T16:00:38.073Z,22.80
2019-02-05T16:04:41.523Z,28.77
2019-02-05T16:08:45.325Z,24.23
2019-02-05T16:12:51.494Z,25.43
2019-02-05T16:16:54.962Z,25.13
2019-02-05T16:20:58.440Z,23.13
2019-02-05T16:25:02.361Z,24.37
2019-02-05T16:29:05.865Z,23.87
2019-02-05T16:33:09.303Z,28.53
2019-02-05T16:37:12.750Z,23.00
2019-02-05T16:41:16.253Z,27.03
2019-02-05T16:45:25.134Z,26.73
2019-02-05T16:49:28.657Z,30.73
2019-02-05T16:53:32.190Z,24.93
2019-02-05T16:57:35.679Z,29.17
2019-02-05T17:01:39.788Z,23.90
2019-02-05T17:05:43.461Z,24.73
2019-02-05T17:09:47.511Z,25.77
2019-02-05T17:13:51.000Z,29.67
2019-02-05T17:17:55.479Z,30.33
2019-02-05T17:21:58.959Z,31.77
2019-02-05T17:26:02.401Z,28.87
2019-02-05T17:30:15.067Z,31.13
2019-02-05T17:34:18.504Z,31.37
2019-02-05T17:38:21.948Z,30.97
2019-02-05T17:42:32.999Z,28.50
2019-02-05T17:46:36.452Z,27.03
2019-02-05T17:50:39.955Z,31.53
2019-02-05T17:54:43.586Z,35.90
2019-02-05T17:58:47.070Z,31.50
2019-02-05T18:02:54.921Z,44.17
2019-02-05T18:06:58.441Z,39.87
2019-02-05T18:11:01.905Z,35.97
2019-02-05T18:15:08.717Z,38.03
2019-02-05T18:19:12.160Z,41.40
2019-02-05T18:23:16.051Z,39.83
2019-02-05T18:27:19.476Z,33.37
2019-02-05T18:31:23.102Z,33.00
2019-02-05T18:35:27.894Z,40.70
2019-02-05T18:39:31.624Z,44.07
2019-02-05T18:43:35.200Z,38.93
2019-02-05T18:47:38.633Z,55.63
2019-02-05T18:51:42.073Z,52.57
2019-02-05T18:55:46.960Z,52.53
2019-02-05T18:59:50.391Z,41.30
2019-02-05T19:03:53.838Z,39.13
2019-02-05T19:07:57.336Z,41.40
2019-02-05T19:12:04.173Z,35.90
2019-02-05T19:16:06.031Z,43.07
2019-02-05T19:20:11.112Z,42.20
2019-02-05T19:24:16.769Z,43.53
2019-02-05T19:28:24.937Z,44.77
2019-02-05T19:32:28.731Z,42.63
2019-02-05T19:36:32.176Z,39.47
2019-02-05T19:40:35.620Z,44.80
2019-02-05T19:44:40.788Z,52.63
2019-02-05T19:48:49.215Z,45.10
2019-02-05T19:52:52.964Z,49.60
2019-02-05T19:56:56.398Z,57.17
2019-02-05T20:01:00.256Z,53.27
2019-02-05T20:05:05.221Z,54.63
2019-02-05T20:09:13.149Z,72.77
2019-02-05T20:13:16.592Z,46.70
2019-02-05T20:17:20.024Z,43.70
2019-02-05T20:21:23.457Z,48.60
2019-02-05T20:25:27.182Z,43.90
2019-02-05T20:29:30.708Z,56.70
2019-02-05T20:33:34.147Z,51.57
2019-02-05T20:37:37.588Z,51.20
2019-02-05T20:41:41.547Z,65.67
2019-02-05T20:45:45.024Z,63.80
2019-02-05T20:49:49.045Z,68.50
2019-02-05T20:53:52.999Z,62.33
2019-02-05T20:57:56.921Z,54.43
2019-02-05T21:02:00.372Z,54.27
2019-02-05T21:06:06.793Z,52.47
2019-02-05T21:10:19.205Z,50.77
2019-02-05T21:14:22.683Z,46.23
2019-02-05T21:18:26.404Z,52.40
2019-02-05T21:22:29.843Z,47.73
2019-02-05T21:26:33.380Z,52.57
2019-02-05T21:30:37.022Z,47.57
2019-02-05T21:34:40.457Z,50.03
2019-02-05T21:38:45.570Z,44.47
2019-02-05T21:42:49.279Z,45.80
2019-02-05T21:46:52.792Z,48.93
2019-02-05T21:50:56.238Z,46.70
2019-02-05T21:54:59.754Z,53.20
2019-02-05T21:59:03.266Z,51.70
2019-02-05T22:03:07.304Z,49.03
2019-02-05T22:07:10.824Z,55.70
2019-02-05T22:11:14.252Z,48.53
2019-02-05T22:15:19.516Z,49.07
2019-02-05T22:19:23.037Z,50.57
2019-02-05T22:23:26.455Z,55.43
2019-02-05T22:27:29.911Z,54.43
2019-02-05T22:31:33.422Z,51.80
2019-02-05T22:35:37.115Z,53.23
2019-02-05T22:39:40.626Z,58.20
2019-02-05T22:43:44.137Z,59.53
2019-02-05T22:47:47.656Z,56.83
2019-02-05T22:51:51.489Z,59.20
2019-02-05T22:55:54.989Z,52.53
2019-02-05T22:59:58.713Z,51.80
2019-02-05T23:04:05.726Z,48.27
2019-02-05T23:08:10.072Z,49.87
2019-02-05T23:12:25.791Z,51.63
2019-02-05T23:16:29.291Z,57.03
2019-02-05T23:20:32.856Z,54.50
2019-02-05T23:24:36.301Z,58.67
2019-02-05T23:28:39.816Z,56.60
2019-02-05T23:32:43.257Z,52.23
2019-02-05T23:36:46.697Z,52.83
2019-02-05T23:40:50.116Z,52.40
2019-02-05T23:44:53.647Z,51.57
2019-02-05T23:48:57.083Z,54.40
2019-02-05T23:53:00.593Z,47.00
2019-02-05T23:57:04.093Z,52.20
